Time;durP1;ratioP1;P1;durP2;ratioP2;P2;SDS_P1;SDS_P2;PMS_P1;PMS_P2;Temp;Humidity;BMP_temperature;BMP_pressure;BME280_temperature;BME280_humidity;BME280_pressure;Samples;Min_cycle;Max_cycle;Signal;HPM_P1;HPM_P2
2022/10/07 00:00:59;;;;;;;20.67;5.90;;;;;;;;;;6210100;23;20023;-84
2022/10/07 00:03:49;;;;;;;26.88;5.47;;;;;;;;;;6247627;23;20012;-87
2022/10/07 00:09:41;;;;;;;22.50;5.63;;;;;;;;;;6116806;23;20026;-86
2022/10/07 00:12:28;;;;;;;26.08;5.65;;;;;;;;;;6114682;23;20185;-85
2022/10/07 00:15:04;;;;;;;21.13;5.40;;;;;;;;;;6154447;23;20017;-85
2022/10/07 00:17:37;;;;;;;20.63;6.25;;;;;;;;;;6161084;23;20024;-86
2022/10/07 00:20:05;;;;;;;19.70;5.68;;;;;;;;;;6248683;23;20023;-85
2022/10/07 00:29:14;;;;;;;16.13;5.40;;;;;;;;;;6228051;23;20107;-86
2022/10/07 00:31:55;;;;;;;20.38;6.07;;;;;;;;;;6211246;23;20473;-85
2022/10/07 00:38:00;;;;;;;29.42;5.63;;;;;;;;;;6246571;23;20035;-86
2022/10/07 00:40:40;;;;;;;21.48;5.97;;;;;;;;;;6210564;23;20031;-85
2022/10/07 00:43:22;;;;;;;25.50;6.60;;;;;;;;;;6211524;23;20095;-85
2022/10/07 00:46:12;;;;;;;15.82;4.63;;;;;;;;;;6196460;23;20034;-85
2022/10/07 00:49:02;;;;;;;20.48;5.97;;;;;;;;;;6231738;23;20032;-87
2022/10/07 00:51:42;;;;;;;34.45;6.97;;;;;;;;;;6247205;23;20113;-85
2022/10/07 00:54:32;;;;;;;32.90;7.38;;;;;;;;;;6248144;23;20062;-85
2022/10/07 01:00:29;;;;;;;19.58;5.18;;;;;;;;;;6216721;23;20031;-85
2022/10/07 01:03:00;;;;;;;26.52;6.20;;;;;;;;;;6249529;23;20148;-86
2022/10/07 01:05:32;;;;;;;22.73;6.95;;;;;;;;;;6246276;23;20019;-86
2022/10/07 01:08:34;;;;;;;;;;;;;;;;;;;;;
2022/10/07 01:14:31;;;;;;;21.95;5.95;;;;;;;;;;6210285;23;20023;-86
2022/10/07 01:17:31;;;;;;;22.85;6.05;;;;;;;;;;6205895;23;20025;-85
2022/10/07 01:26:45;;;;;;;27.38;7.05;;;;;;;;;;6107034;23;20129;-85
2022/10/07 01:32:43;;;;;;;25.20;6.18;;;;;;;;;;6212769;23;20020;-86
2022/10/07 01:47:06;;;;;;;31.23;6.90;;;;;;;;;;6177271;23;20024;-85
2022/10/07 01:49:54;;;;;;;26.85;6.90;;;;;;;;;;6218630;23;20024;-85
2022/10/07 01:56:12;;;;;;;26.27;6.80;;;;;;;;;;6177746;23;20403;-86
2022/10/07 01:58:44;;;;;;;33.60;6.80;;;;;;;;;;6178218;23;20016;-86
2022/10/07 02:10:54;;;;;;;29.55;7.13;;;;;;;;;;6180408;23;20028;-86
2022/10/07 02:19:30;;;;;;;25.63;7.55;;;;;;;;;;6207912;23;20020;-85
2022/10/07 02:25:03;;;;;;;23.33;6.55;;;;;;;;;;6193447;23;20031;-86
2022/10/07 02:27:41;;;;;;;30.65;7.25;;;;;;;;;;6207176;23;20020;-84
2022/10/07 02:30:18;;;;;;;31.30;7.53;;;;;;;;;;6210027;23;20450;-85
2022/10/07 02:33:18;;;;;;;24.48;7.60;;;;;;;;;;6247046;23;20480;-86
2022/10/07 02:36:09;;;;;;;35.08;7.22;;;;;;;;;;6247418;23;20016;-85
2022/10/07 02:39:14;;;;;;;29.95;9.48;;;;;;;;;;6232164;23;20028;-85
2022/10/07 02:44:50;;;;;;;24.30;6.43;;;;;;;;;;6238405;23;20101;-86
2022/10/07 02:53:21;;;;;;;29.85;7.68;;;;;;;;;;6213754;23;20024;-85
2022/10/07 02:56:14;;;;;;;23.85;7.13;;;;;;;;;;6229386;23;20020;-86
2022/10/07 03:02:24;;;;;;;38.60;7.90;;;;;;;;;;6214036;23;20090;-86
2022/10/07 03:08:23;;;;;;;36.85;8.05;;;;;;;;;;6237419;23;20461;-85
2022/10/07 03:11:18;;;;;;;26.50;7.07;;;;;;;;;;6209633;23;20454;-85
2022/10/07 03:13:53;;;;;;;28.95;8.23;;;;;;;;;;6150422;23;20433;-85
2022/10/07 03:16:41;;;;;;;31.77;8.25;;;;;;;;;;6146441;23;20379;-84
2022/10/07 03:19:17;;;;;;;28.02;7.32;;;;;;;;;;6146360;23;20025;-85
2022/10/07 03:22:34;;;;;;;32.03;7.50;;;;;;;;;;6208892;23;20020;-85
2022/10/07 03:25:18;;;;;;;36.45;7.45;;;;;;;;;;6206869;23;20035;-86
2022/10/07 03:28:07;;;;;;;27.73;7.03;;;;;;;;;;6206867;23;20513;-85
2022/10/07 03:37:02;;;;;;;34.42;8.30;;;;;;;;;;6079404;23;20014;-85
2022/10/07 03:42:42;;;;;;;38.53;9.23;;;;;;;;;;6217200;23;20008;-85
2022/10/07 03:45:19;;;;;;;24.33;6.65;;;;;;;;;;6216714;23;20013;-85
2022/10/07 03:47:58;;;;;;;;;;;;;;;;;;;;;
2022/10/07 03:53:20;;;;;;;35.05;8.57;;;;;;;;;;6121310;23;20022;-85
2022/10/07 03:56:04;;;;;;;34.70;8.15;;;;;;;;;;6118590;23;20030;-85
2022/10/07 03:58:33;;;;;;;;;;;;;;;;;;6206258;23;20051;-85
2022/10/07 04:01:40;;;;;;;32.55;6.70;;;;;;;;;;6205917;23;19926;-85
2022/10/07 04:07:13;;;;;;;39.33;8.18;;;;;;;;;;6201290;23;20466;-85
2022/10/07 04:09:53;;;;;;;24.15;5.85;;;;;;;;;;6205048;23;20083;-85
2022/10/07 04:15:40;;;;;;;28.20;6.55;;;;;;;;;;6203752;23;20020;-85
2022/10/07 04:28:02;;;;;;;;;;;;;;;;;;;;;
2022/10/07 04:31:11;;;;;;;30.25;6.63;;;;;;;;;;6058922;23;20096;-86
2022/10/07 04:36:57;;;;;;;24.88;6.25;;;;;;;;;;6164998;23;20017;-84
2022/10/07 04:39:30;;;;;;;25.77;6.57;;;;;;;;;;6202070;23;20028;-85
2022/10/07 04:44:52;;;;;;;24.38;4.95;;;;;;;;;;6216314;23;20023;-85
2022/10/07 04:50:35;;;;;;;35.10;6.07;;;;;;;;;;6153612;23;20370;-85
2022/10/07 04:53:20;;;;;;;33.10;5.82;;;;;;;;;;6206564;23;20020;-83
2022/10/07 04:56:33;;;;;;;32.00;6.68;;;;;;;;;;6088630;23;20080;-85
2022/10/07 04:59:29;;;;;;;30.13;6.47;;;;;;;;;;6204739;23;20035;-85
2022/10/07 05:02:14;;;;;;;31.65;5.82;;;;;;;;;;6204964;23;20024;-85
2022/10/07 05:05:03;;;;;;;42.47;5.95;;;;;;;;;;6143657;23;20029;-85
2022/10/07 05:07:49;;;;;;;24.52;6.55;;;;;;;;;;6189557;23;20020;-84
2022/10/07 05:10:47;;;;;;;36.00;6.90;;;;;;;;;;6203346;23;20016;-85
2022/10/07 05:13:28;;;;;;;29.40;5.97;;;;;;;;;;6199586;23;20027;-85
2022/10/07 05:22:03;;;;;;;24.48;6.20;;;;;;;;;;6225489;23;20028;-86
2022/10/07 05:24:54;;;;;;;;;;;;;;;;;;;;;
2022/10/07 05:31:02;;;;;;;27.73;4.97;;;;;;;;;;6206500;23;20086;-86
2022/10/07 05:33:45;;;;;;;29.58;6.47;;;;;;;;;;6211631;23;20039;-85
2022/10/07 05:36:24;;;;;;;30.95;5.63;;;;;;;;;;6208941;23;20049;-86
2022/10/07 05:39:18;;;;;;;29.77;5.63;;;;;;;;;;6210951;23;20035;-86
2022/10/07 05:45:21;;;;;;;29.73;7.07;;;;;;;;;;6186735;23;20020;-85
2022/10/07 05:47:56;;;;;;;27.02;5.10;;;;;;;;;;6208142;23;20444;-85
2022/10/07 05:53:30;;;;;;;28.35;5.72;;;;;;;;;;6210490;23;20016;-86
2022/10/07 05:56:15;;;;;;;24.65;4.95;;;;;;;;;;6208211;23;20016;-86
2022/10/07 06:02:02;;;;;;;35.38;6.63;;;;;;;;;;6227280;23;20028;-85
2022/10/07 06:04:32;;;;;;;27.30;5.15;;;;;;;;;;6204882;23;20457;-86
2022/10/07 06:16:17;;;;;;;28.42;5.35;;;;;;;;;;6210090;23;20058;-86
2022/10/07 06:22:41;;;;;;;30.83;5.95;;;;;;;;;;6118241;23;20076;-86
2022/10/07 06:25:21;;;;;;;32.33;6.90;;;;;;;;;;6118845;23;20165;-86
2022/10/07 06:28:15;;;;;;;26.80;5.35;;;;;;;;;;6159836;23;20042;-86
2022/10/07 06:31:06;;;;;;;32.40;5.78;;;;;;;;;;6154296;23;20177;-87
2022/10/07 06:34:01;;;;;;;26.05;5.40;;;;;;;;;;6211770;23;20024;-87
2022/10/07 06:37:28;;;;;;;27.23;5.10;;;;;;;;;;6235196;23;20016;-85
2022/10/07 06:43:02;;;;;;;31.48;5.78;;;;;;;;;;6143670;23;20020;-86
2022/10/07 06:46:08;;;;;;;;;;;;;;;;;;;;;
2022/10/07 06:52:08;;;;;;;24.45;6.25;;;;;;;;;;6205020;23;20450;-86
2022/10/07 06:58:26;;;;;;;;;;;;;;;;;;;;;
2022/10/07 07:04:21;;;;;;;28.25;5.38;;;;;;;;;;6237332;23;20020;-86
2022/10/07 07:10:29;;;;;;;27.65;5.90;;;;;;;;;;6213554;23;20020;-87
2022/10/07 07:13:20;;;;;;;31.38;5.53;;;;;;;;;;6210652;23;20020;-87
2022/10/07 07:16:24;;;;;;;;;;;;;;;;;;;;;
2022/10/07 07:19:16;;;;;;;29.90;6.57;;;;;;;;;;6172119;23;20086;-86
2022/10/07 07:25:18;;;;;;;31.33;5.25;;;;;;;;;;6108496;23;20020;-87
2022/10/07 07:30:52;;;;;;;30.80;5.93;;;;;;;;;;6206690;23;20013;-87
2022/10/07 07:33:19;;;;;;;35.92;6.07;;;;;;;;;;6220081;23;20013;-87
2022/10/07 07:35:56;;;;;;;27.13;5.40;;;;;;;;;;6208011;23;20016;-88
2022/10/07 07:41:34;;;;;;;29.52;5.60;;;;;;;;;;6207652;23;20017;-88
2022/10/07 07:47:09;;;;;;;33.30;6.50;;;;;;;;;;6203100;23;20023;-88
2022/10/07 07:49:43;;;;;;;41.72;6.20;;;;;;;;;;6207930;23;20051;-87
2022/10/07 07:52:41;;;;;;;27.48;6.03;;;;;;;;;;6207923;23;20017;-87
2022/10/07 07:55:17;;;;;;;30.42;5.75;;;;;;;;;;6218389;23;20024;-87
2022/10/07 07:57:44;;;;;;;30.25;5.63;;;;;;;;;;6201380;23;20031;-87
2022/10/07 08:00:21;;;;;;;28.67;5.95;;;;;;;;;;6229949;23;20032;-87
2022/10/07 08:03:12;;;;;;;26.77;5.40;;;;;;;;;;6205366;23;20032;-85
2022/10/07 08:05:43;;;;;;;32.78;6.00;;;;;;;;;;6206584;23;20021;-87
2022/10/07 08:08:20;;;;;;;28.77;5.30;;;;;;;;;;6205959;23;20040;-86
2022/10/07 08:10:46;;;;;;;27.60;5.85;;;;;;;;;;6217099;23;20020;-86
2022/10/07 08:13:31;;;;;;;40.25;6.70;;;;;;;;;;6205915;23;20095;-86
2022/10/07 08:16:13;;;;;;;31.55;5.07;;;;;;;;;;6231084;23;20099;-86
2022/10/07 08:18:42;;;;;;;24.75;6.03;;;;;;;;;;6206060;23;20021;-87
2022/10/07 08:21:18;;;;;;;26.10;5.57;;;;;;;;;;6205746;23;20071;-87
2022/10/07 08:27:29;;;;;;;26.02;5.95;;;;;;;;;;6061262;23;20019;-85
2022/10/07 08:29:56;;;;;;;33.72;6.75;;;;;;;;;;6148185;23;20055;-84
2022/10/07 08:32:32;;;;;;;30.75;6.38;;;;;;;;;;6207846;23;20043;-85
2022/10/07 08:35:10;;;;;;;33.85;7.07;;;;;;;;;;6219711;23;20088;-85
2022/10/07 08:41:04;;;;;;;30.92;5.78;;;;;;;;;;6216737;23;20025;-85
2022/10/07 08:43:48;;;;;;;41.22;7.57;;;;;;;;;;6220049;23;20099;-85
2022/10/07 08:46:23;;;;;;;34.25;6.10;;;;;;;;;;6207190;23;20063;-85
2022/10/07 08:49:20;;;;;;;30.70;7.47;;;;;;;;;;6208540;23;20021;-84
2022/10/07 08:52:07;;;;;;;28.05;5.97;;;;;;;;;;6102917;23;20022;-84
2022/10/07 08:54:42;;;;;;;37.75;8.10;;;;;;;;;;6208447;23;20099;-84
2022/10/07 08:57:15;;;;;;;29.70;6.75;;;;;;;;;;6217992;23;20016;-85
2022/10/07 09:00:11;;;;;;;23.67;5.93;;;;;;;;;;6207418;23;20037;-84
2022/10/07 09:02:55;;;;;;;34.10;6.70;;;;;;;;;;6180574;23;20046;-85
2022/10/07 09:06:07;;;;;;;36.78;6.75;;;;;;;;;;6187058;23;20028;-85
2022/10/07 09:09:14;;;;;;;28.77;6.20;;;;;;;;;;6220014;23;20016;-84
2022/10/07 09:11:57;;;;;;;;;;;;;;;;;;;;;
2022/10/07 09:21:20;;;;;;;26.55;5.85;;;;;;;;;;6075591;23;20452;-86
2022/10/07 09:23:47;;;;;;;28.63;5.20;;;;;;;;;;6111077;23;20019;-85
2022/10/07 09:26:29;;;;;;;23.20;5.00;;;;;;;;;;6206955;23;20078;-85
2022/10/07 09:29:31;;;;;;;32.67;5.25;;;;;;;;;;6216927;23;20083;-85
2022/10/07 09:32:46;;;;;;;;;;;;;;;;;;;;;
2022/10/07 09:35:31;;;;;;;30.90;5.57;;;;;;;;;;6203303;23;20016;-85
2022/10/07 09:37:59;;;;;;;23.42;5.22;;;;;;;;;;6216847;23;20802;-85
2022/10/07 09:44:06;;;;;;;21.23;4.53;;;;;;;;;;6109130;23;20349;-85
2022/10/07 09:50:05;;;;;;;26.42;5.90;;;;;;;;;;6097819;23;20065;-85
2022/10/07 09:52:32;;;;;;;22.23;4.57;;;;;;;;;;6125217;23;20017;-85
2022/10/07 09:58:28;;;;;;;20.73;4.95;;;;;;;;;;6144357;23;20021;-85
2022/10/07 10:01:29;;;;;;;22.83;5.18;;;;;;;;;;6216745;23;20020;-85
2022/10/07 10:04:34;;;;;;;;;;;;;;;;;;;;;
2022/10/07 10:13:05;;;;;;;28.70;5.15;;;;;;;;;;6201558;23;20028;-87
2022/10/07 10:16:06;;;;;;;24.48;5.38;;;;;;;;;;6217656;23;20062;-85
2022/10/07 10:18:34;;;;;;;26.38;5.10;;;;;;;;;;6237935;23;20012;-83
2022/10/07 10:21:31;;;;;;;24.83;5.30;;;;;;;;;;6209573;23;20354;-84
2022/10/07 10:27:37;;;;;;;24.30;4.60;;;;;;;;;;6180740;23;20029;-85
2022/10/07 10:30:11;;;;;;;29.42;4.70;;;;;;;;;;6164432;23;20023;-84
2022/10/07 10:33:24;;;;;;;29.27;6.05;;;;;;;;;;6236885;23;20048;-84
2022/10/07 10:35:56;;;;;;;23.63;5.23;;;;;;;;;;6228685;23;20040;-84
2022/10/07 10:38:36;;;;;;;21.75;4.97;;;;;;;;;;6237628;23;20009;-84
2022/10/07 10:44:37;;;;;;;23.75;5.00;;;;;;;;;;6207869;23;20027;-84
2022/10/07 10:53:08;;;;;;;20.02;4.93;;;;;;;;;;6219568;23;20027;-85
2022/10/07 11:13:57;;;;;;;;;;;;;;;;;;;;;
2022/10/07 11:16:35;;;;;;;23.17;4.07;;;;;;;;;;6163799;23;20094;-85
2022/10/07 11:22:11;;;;;;;23.33;4.05;;;;;;;;;;6217491;23;20020;-84
2022/10/07 11:24:59;;;;;;;20.75;4.18;;;;;;;;;;6211307;23;20012;-85
2022/10/07 11:27:39;;;;;;;18.58;3.95;;;;;;;;;;6208326;23;20040;-85
2022/10/07 11:30:33;;;;;;;19.50;3.75;;;;;;;;;;6217140;23;20178;-85
2022/10/07 11:33:16;;;;;;;22.20;4.00;;;;;;;;;;6206649;23;20029;-85
2022/10/07 11:35:56;;;;;;;16.67;3.90;;;;;;;;;;6215755;23;20090;-84
2022/10/07 11:38:42;;;;;;;;;;;;;;;;;;;;;
2022/10/07 11:41:41;;;;;;;22.52;5.13;;;;;;;;;;6208378;23;20071;-84
2022/10/07 11:44:15;;;;;;;18.75;3.17;;;;;;;;;;6209542;23;20023;-84
2022/10/07 11:46:45;;;;;;;14.75;3.25;;;;;;;;;;6214591;23;20462;-84
2022/10/07 11:49:23;;;;;;;22.90;3.25;;;;;;;;;;6209248;23;20017;-84
2022/10/07 11:52:11;;;;;;;16.67;3.58;;;;;;;;;;6207090;23;20153;-85
2022/10/07 11:55:06;;;;;;;22.25;3.53;;;;;;;;;;6203450;23;20021;-85
2022/10/07 11:57:54;;;;;;;;;;;;;;;;;;;;;
2022/10/07 12:00:38;;;;;;;17.83;3.75;;;;;;;;;;6207912;23;20714;-84
2022/10/07 12:03:35;;;;;;;16.80;3.30;;;;;;;;;;6217960;23;20020;-85
2022/10/07 12:06:17;;;;;;;15.57;3.25;;;;;;;;;;6082927;23;20357;-85
2022/10/07 12:15:23;;;;;;;14.45;3.03;;;;;;;;;;6214753;23;20289;-85
2022/10/07 12:18:16;;;;;;;18.73;3.70;;;;;;;;;;6126453;23;20033;-84
2022/10/07 12:21:05;;;;;;;23.73;4.45;;;;;;;;;;6111711;23;20021;-85
2022/10/07 12:24:22;;;;;;;15.25;3.38;;;;;;;;;;6043565;23;20169;-85
2022/10/07 12:27:05;;;;;;;16.45;3.53;;;;;;;;;;6065676;23;20021;-85
2022/10/07 12:33:08;;;;;;;16.75;3.58;;;;;;;;;;6211169;23;20048;-86
2022/10/07 12:35:41;;;;;;;17.27;2.85;;;;;;;;;;6161025;23;20016;-86
2022/10/07 12:38:18;;;;;;;16.92;3.47;;;;;;;;;;6238112;23;20012;-86
2022/10/07 12:41:23;;;;;;;18.35;3.85;;;;;;;;;;6249231;23;20020;-85
2022/10/07 12:47:12;;;;;;;18.80;3.13;;;;;;;;;;6186686;23;20051;-85
2022/10/07 12:49:57;;;;;;;15.73;3.35;;;;;;;;;;6239542;23;20019;-84
2022/10/07 12:55:42;;;;;;;15.30;3.55;;;;;;;;;;6224224;23;20349;-84
2022/10/07 13:01:29;;;;;;;18.80;3.42;;;;;;;;;;6239726;23;20171;-85
2022/10/07 13:04:09;;;;;;;15.52;3.47;;;;;;;;;;6213770;23;20028;-85
2022/10/07 13:07:07;;;;;;;13.30;2.90;;;;;;;;;;6213061;23;20062;-84
2022/10/07 13:10:10;;;;;;;16.02;3.47;;;;;;;;;;6146855;23;20027;-85
2022/10/07 13:12:55;;;;;;;16.98;3.10;;;;;;;;;;6189412;23;20020;-85
2022/10/07 13:15:54;;;;;;;22.25;3.15;;;;;;;;;;6221211;23;20089;-85
2022/10/07 13:18:49;;;;;;;19.67;3.83;;;;;;;;;;6207238;23;20076;-85
2022/10/07 13:21:30;;;;;;;15.90;3.33;;;;;;;;;;6207598;23;20048;-85
2022/10/07 13:24:35;;;;;;;;;;;;;;;;;;;;;
2022/10/07 13:27:10;;;;;;;11.85;2.90;;;;;;;;;;6208720;23;20017;-84
2022/10/07 13:30:14;;;;;;;19.38;3.50;;;;;;;;;;6213358;23;20339;-85
2022/10/07 13:32:45;;;;;;;25.77;3.35;;;;;;;;;;6188855;23;20055;-85
2022/10/07 13:35:36;;;;;;;21.80;4.10;;;;;;;;;;6209094;23;20009;-85
2022/10/07 13:41:33;;;;;;;21.77;3.40;;;;;;;;;;6187241;23;20116;-85
2022/10/07 13:44:32;;;;;;;20.27;3.53;;;;;;;;;;6206679;23;20024;-85
2022/10/07 13:47:36;;;;;;;17.92;3.30;;;;;;;;;;6186512;23;20071;-84
2022/10/07 13:50:35;;;;;;;;;;;;;;;;;;;;;
2022/10/07 13:53:40;;;;;;;13.35;2.88;;;;;;;;;;6202440;23;20031;-85
2022/10/07 13:56:27;;;;;;;15.80;3.08;;;;;;;;;;6079587;23;20130;-85
2022/10/07 13:59:09;;;;;;;23.52;3.60;;;;;;;;;;6218282;23;20603;-84
2022/10/07 14:01:55;;;;;;;16.27;4.15;;;;;;;;;;6216210;23;20096;-84
2022/10/07 14:07:33;;;;;;;14.32;2.78;;;;;;;;;;6162696;23;20017;-84
2022/10/07 14:16:20;;;;;;;15.65;3.67;;;;;;;;;;6207671;23;20070;-84
2022/10/07 14:19:04;;;;;;;15.32;2.75;;;;;;;;;;6211312;23;20107;-84
2022/10/07 14:21:54;;;;;;;12.05;2.80;;;;;;;;;;6226522;23;20024;-84
2022/10/07 14:24:22;;;;;;;18.90;3.40;;;;;;;;;;6208457;23;20390;-86
2022/10/07 14:26:59;;;;;;;18.20;3.53;;;;;;;;;;6210150;23;20016;-85
2022/10/07 14:30:00;;;;;;;14.15;3.42;;;;;;;;;;6245577;23;20123;-85
2022/10/07 14:36:26;;;;;;;18.17;3.90;;;;;;;;;;6217243;23;20458;-85
2022/10/07 14:39:46;;;;;;;;;;;;;;;;;;;;;
2022/10/07 14:45:42;;;;;;;21.70;3.42;;;;;;;;;;6234723;23;20016;-84
2022/10/07 14:51:06;;;;;;;13.30;3.60;;;;;;;;;;6188620;23;20031;-85
2022/10/07 14:59:59;;;;;;;19.05;3.70;;;;;;;;;;6208348;23;20783;-85
2022/10/07 15:02:35;;;;;;;12.77;2.83;;;;;;;;;;6090489;23;20017;-85
2022/10/07 15:08:15;;;;;;;16.52;3.13;;;;;;;;;;6213558;23;20711;-85
2022/10/07 15:10:48;;;;;;;20.80;3.28;;;;;;;;;;6236107;23;20013;-85
2022/10/07 15:17:16;;;;;;;11.10;3.00;;;;;;;;;;6236034;23;20430;-85
2022/10/07 15:25:48;;;;;;;16.85;3.53;;;;;;;;;;6234943;23;20024;-86
2022/10/07 15:28:30;;;;;;;19.75;3.90;;;;;;;;;;6237746;23;20019;-85
2022/10/07 15:31:01;;;;;;;22.27;4.15;;;;;;;;;;6234045;23;20453;-87
2022/10/07 15:33:48;;;;;;;16.88;4.05;;;;;;;;;;6207551;23;20731;-87
2022/10/07 15:36:37;;;;;;;15.45;3.65;;;;;;;;;;6236997;23;20024;-87
2022/10/07 15:42:45;;;;;;;18.35;3.15;;;;;;;;;;6091179;23;20053;-87
2022/10/07 15:48:16;;;;;;;15.52;2.80;;;;;;;;;;6084442;23;20120;-86
2022/10/07 15:57:29;;;;;;;20.33;3.88;;;;;;;;;;6147810;23;20438;-86
2022/10/07 16:02:46;;;;;;;20.23;3.25;;;;;;;;;;6237543;23;19920;-86
2022/10/07 16:05:13;;;;;;;15.75;3.08;;;;;;;;;;6238152;23;20035;-86
2022/10/07 16:08:08;;;;;;;19.55;3.58;;;;;;;;;;6212135;23;20016;-87
2022/10/07 16:21:41;;;;;;;18.42;3.85;;;;;;;;;;6094277;23;20058;-86
2022/10/07 16:24:19;;;;;;;13.50;3.05;;;;;;;;;;6090486;23;20022;-86
2022/10/07 16:36:25;;;;;;;28.83;3.33;;;;;;;;;;6220863;23;20090;-85
2022/10/07 16:44:44;;;;;;;11.73;2.60;;;;;;;;;;6141724;23;20032;-85
2022/10/07 16:47:23;;;;;;;20.00;3.35;;;;;;;;;;6119874;23;20589;-85
2022/10/07 16:50:12;;;;;;;10.95;2.65;;;;;;;;;;6248347;23;20052;-85
2022/10/07 16:52:39;;;;;;;15.63;3.40;;;;;;;;;;6236511;23;20028;-86
2022/10/07 16:55:23;;;;;;;17.10;3.50;;;;;;;;;;6234432;23;20020;-85
2022/10/07 16:57:53;;;;;;;21.40;6.38;;;;;;;;;;6236501;23;20027;-86
2022/10/07 17:00:21;;;;;;;25.55;7.40;;;;;;;;;;6208631;23;20019;-85
2022/10/07 17:05:55;;;;;;;;;;;;;;;;;;;;;
2022/10/07 17:08:22;;;;;;;16.65;3.92;;;;;;;;;;6239009;23;20659;-87
2022/10/07 17:13:48;;;;;;;17.15;4.05;;;;;;;;;;6195116;23;20024;-86
2022/10/07 17:16:19;;;;;;;18.02;4.03;;;;;;;;;;6209654;23;20106;-86
2022/10/07 17:18:55;;;;;;;15.05;4.07;;;;;;;;;;6206649;23;20017;-86
2022/10/07 17:25:04;;;;;;;14.57;3.38;;;;;;;;;;6218185;23;20107;-86
2022/10/07 17:39:56;;;;;;;18.73;4.05;;;;;;;;;;6217429;23;20021;-85
2022/10/07 17:42:30;;;;;;;16.05;3.92;;;;;;;;;;6208547;23;20021;-85
2022/10/07 17:48:13;;;;;;;15.10;4.20;;;;;;;;;;6207402;23;20056;-85
2022/10/07 17:50:53;;;;;;;22.40;4.40;;;;;;;;;;6203358;23;20029;-85
2022/10/07 17:53:41;;;;;;;20.05;4.97;;;;;;;;;;6205201;23;20467;-85
2022/10/07 17:56:29;;;;;;;13.45;3.25;;;;;;;;;;6196032;23;20771;-87
2022/10/07 18:02:00;;;;;;;17.38;5.05;;;;;;;;;;6117344;23;20020;-86
2022/10/07 18:07:35;;;;;;;18.95;4.22;;;;;;;;;;6205560;23;20016;-84
2022/10/07 18:10:10;;;;;;;14.45;3.50;;;;;;;;;;6173669;23;20028;-84
2022/10/07 18:16:16;;;;;;;;;;;;;;;;;;;;;
2022/10/07 18:22:21;;;;;;;12.40;3.22;;;;;;;;;;6147477;23;20916;-85
2022/10/07 18:25:10;;;;;;;21.55;3.47;;;;;;;;;;6209578;23;20020;-85
2022/10/07 18:27:37;;;;;;;22.67;4.63;;;;;;;;;;6237591;23;20091;-85
2022/10/07 18:33:23;;;;;;;14.70;4.25;;;;;;;;;;6220221;23;20105;-84
2022/10/07 18:36:20;;;;;;;16.42;4.03;;;;;;;;;;6142874;23;20452;-85
2022/10/07 18:39:07;;;;;;;15.60;3.70;;;;;;;;;;6150892;23;20098;-86
2022/10/07 18:41:49;;;;;;;18.08;3.90;;;;;;;;;;6234263;23;20028;-84
2022/10/07 18:47:20;;;;;;;15.10;3.90;;;;;;;;;;6248183;23;20473;-85
2022/10/07 18:49:50;;;;;;;14.38;3.70;;;;;;;;;;6237447;23;20012;-85
2022/10/07 18:52:26;;;;;;;13.50;3.75;;;;;;;;;;6236491;23;20027;-85
2022/10/07 18:55:00;;;;;;;18.33;3.33;;;;;;;;;;6238829;23;20050;-85
2022/10/07 18:57:33;;;;;;;19.33;3.75;;;;;;;;;;6211635;23;20019;-86
2022/10/07 19:00:27;;;;;;;20.33;4.63;;;;;;;;;;6237723;23;20333;-86
2022/10/07 19:03:33;;;;;;;15.60;3.28;;;;;;;;;;6237961;23;20020;-85
2022/10/07 19:06:24;;;;;;;21.20;4.00;;;;;;;;;;6209042;23;20508;-85
2022/10/07 19:09:02;;;;;;;15.57;3.25;;;;;;;;;;6217782;23;20016;-85
2022/10/07 19:11:37;;;;;;;21.90;5.03;;;;;;;;;;6239338;23;20512;-86
2022/10/07 19:14:33;;;;;;;15.40;4.13;;;;;;;;;;6212102;23;20020;-84
2022/10/07 19:20:16;;;;;;;17.35;4.25;;;;;;;;;;6203895;23;20031;-86
2022/10/07 19:22:58;;;;;;;22.77;4.40;;;;;;;;;;6239415;23;20023;-85
2022/10/07 19:28:27;;;;;;;;;;;;;;;;;;;;;
2022/10/07 19:31:12;;;;;;;18.38;4.95;;;;;;;;;;6246187;23;20020;-85
2022/10/07 19:36:45;;;;;;;;;;;;;;;;;;;;;
2022/10/07 19:39:12;;;;;;;22.20;3.42;;;;;;;;;;6238098;23;20035;-85
2022/10/07 19:41:47;;;;;;;22.40;3.90;;;;;;;;;;6237899;23;20103;-87
2022/10/07 19:44:37;;;;;;;16.58;3.97;;;;;;;;;;6239818;23;20024;-86
2022/10/07 19:47:21;;;;;;;24.75;4.05;;;;;;;;;;6239790;23;20099;-85
2022/10/07 19:49:51;;;;;;;17.67;3.70;;;;;;;;;;6241977;23;20062;-85
2022/10/07 19:55:53;;;;;;;22.10;4.22;;;;;;;;;;6236685;23;20009;-85
2022/10/07 19:58:37;;;;;;;15.98;3.33;;;;;;;;;;6210202;23;20496;-85
2022/10/07 20:04:40;;;;;;;18.52;3.53;;;;;;;;;;6208744;23;20024;-86
2022/10/07 20:10:34;;;;;;;18.27;4.22;;;;;;;;;;6219795;23;20020;-86
2022/10/07 20:13:16;;;;;;;20.30;4.05;;;;;;;;;;6246316;23;20020;-86
2022/10/07 20:19:26;;;;;;;17.77;4.28;;;;;;;;;;6237208;23;20012;-85
2022/10/07 20:25:16;;;;;;;19.15;3.65;;;;;;;;;;6153962;23;20028;-85
2022/10/07 20:27:45;;;;;;;15.63;3.30;;;;;;;;;;6204655;23;20024;-85
2022/10/07 20:30:12;;;;;;;22.15;4.40;;;;;;;;;;6205887;23;20024;-85
2022/10/07 20:32:39;;;;;;;15.32;3.28;;;;;;;;;;6207942;23;20017;-85
2022/10/07 20:35:38;;;;;;;16.00;3.53;;;;;;;;;;6208337;23;20027;-85
2022/10/07 20:38:28;;;;;;;17.20;3.35;;;;;;;;;;6188555;23;20129;-85
2022/10/07 20:50:14;;;;;;;25.98;4.55;;;;;;;;;;6168792;23;20133;-85
2022/10/07 20:53:03;;;;;;;18.50;4.00;;;;;;;;;;6206375;23;20043;-86
2022/10/07 20:55:35;;;;;;;20.77;4.03;;;;;;;;;;6179864;23;20054;-85
2022/10/07 20:58:21;;;;;;;18.63;3.70;;;;;;;;;;6206540;23;20012;-85
2022/10/07 21:00:57;;;;;;;18.27;3.40;;;;;;;;;;6206005;23;20454;-86
2022/10/07 21:03:26;;;;;;;;;;;;;;;;;;6178790;23;20092;-85
2022/10/07 21:22:24;;;;;;;21.15;4.60;;;;;;;;;;6215228;23;20024;-85
2022/10/07 21:25:11;;;;;;;18.63;3.45;;;;;;;;;;6210625;23;20040;-85
2022/10/07 21:31:26;;;;;;;18.00;3.40;;;;;;;;;;6218017;23;20031;-85
2022/10/07 21:36:46;;;;;;;15.60;3.58;;;;;;;;;;6156074;23;20850;-85
2022/10/07 21:39:26;;;;;;;16.35;3.72;;;;;;;;;;6178671;23;20052;-84
2022/10/07 21:48:28;;;;;;;;;;;;;;;;;;;;;
2022/10/07 21:51:03;;;;;;;14.68;3.65;;;;;;;;;;6172844;23;20025;-85
2022/10/07 21:53:51;;;;;;;17.45;3.85;;;;;;;;;;6209945;23;20524;-85
2022/10/07 21:56:42;;;;;;;18.30;4.28;;;;;;;;;;6181059;23;20107;-85
2022/10/07 22:02:16;;;;;;;18.50;4.05;;;;;;;;;;6203227;23;20027;-85
2022/10/07 22:11:00;;;;;;;23.73;4.00;;;;;;;;;;6188060;23;20496;-85
2022/10/07 22:13:45;;;;;;;16.17;4.20;;;;;;;;;;6207269;23;20017;-84
2022/10/07 22:16:32;;;;;;;12.00;3.60;;;;;;;;;;6205930;23;20083;-85
2022/10/07 22:22:11;;;;;;;20.70;4.15;;;;;;;;;;6145879;23;20462;-85
2022/10/07 22:27:36;;;;;;;18.23;4.50;;;;;;;;;;6161053;23;20361;-85
2022/10/07 22:30:12;;;;;;;15.35;3.95;;;;;;;;;;6237589;23;20100;-85
2022/10/07 22:32:51;;;;;;;21.70;4.28;;;;;;;;;;6238111;23;20023;-85
2022/10/07 22:35:32;;;;;;;15.90;4.85;;;;;;;;;;6236810;23;20024;-85
2022/10/07 22:37:59;;;;;;;21.25;4.50;;;;;;;;;;6238966;23;20016;-84
2022/10/07 22:40:25;;;;;;;23.17;4.63;;;;;;;;;;6235899;23;20050;-85
2022/10/07 22:43:16;;;;;;;20.45;4.05;;;;;;;;;;6209980;23;20358;-84
2022/10/07 22:45:54;;;;;;;27.45;5.65;;;;;;;;;;6234029;23;20023;-85
2022/10/07 22:48:33;;;;;;;23.10;5.65;;;;;;;;;;6237114;23;20016;-85
2022/10/07 22:51:15;;;;;;;;;;;;;;;;;;;;;
2022/10/07 22:54:07;;;;;;;19.00;3.78;;;;;;;;;;6243051;23;20031;-85
2022/10/07 22:56:56;;;;;;;19.70;4.63;;;;;;;;;;6207713;23;20024;-84
2022/10/07 22:59:27;;;;;;;21.88;4.32;;;;;;;;;;6236339;23;20020;-85
2022/10/07 23:05:25;;;;;;;28.40;4.68;;;;;;;;;;6215742;23;20032;-85
2022/10/07 23:07:58;;;;;;;21.85;4.60;;;;;;;;;;6237134;23;20009;-84
2022/10/07 23:10:25;;;;;;;17.90;4.38;;;;;;;;;;6209610;23;20500;-84
2022/10/07 23:15:35;;;;;;;18.42;4.32;;;;;;;;;;6204855;23;20055;-85
2022/10/07 23:18:02;;;;;;;22.05;4.90;;;;;;;;;;6238290;23;20020;-85
2022/10/07 23:20:35;;;;;;;26.52;4.85;;;;;;;;;;6237589;23;20774;-84
2022/10/07 23:23:23;;;;;;;;;;;;;;;;;;;;;
2022/10/07 23:26:00;;;;;;;28.45;4.80;;;;;;;;;;6205681;23;20016;-84
2022/10/07 23:28:34;;;;;;;24.45;4.78;;;;;;;;;;6204450;23;20036;-85
2022/10/07 23:31:22;;;;;;;18.92;4.10;;;;;;;;;;6205687;23;20099;-85
2022/10/07 23:34:15;;;;;;;23.90;3.75;;;;;;;;;;6206878;23;20020;-85
2022/10/07 23:36:58;;;;;;;20.48;4.18;;;;;;;;;;6193104;23;20383;-85
2022/10/07 23:39:40;;;;;;;25.17;4.32;;;;;;;;;;6206573;23;20023;-85
2022/10/07 23:42:34;;;;;;;20.25;4.00;;;;;;;;;;6199974;23;20477;-85
2022/10/07 23:45:45;;;;;;;;;;;;;;;;;;;;;
2022/10/07 23:51:13;;;;;;;22.23;3.83;;;;;;;;;;6195003;23;20404;-85
2022/10/07 23:53:39;;;;;;;21.02;3.80;;;;;;;;;;6207765;23;20017;-85
2022/10/07 23:56:20;;;;;;;16.65;4.05;;;;;;;;;;6205525;23;20028;-85
2022/10/07 23:59:00;;;;;;;17.85;4.10;;;;;;;;;;6203836;23;20035;-85
